createdAt,value
2018-03-17T00:00:00.103Z,2.70
2018-03-17T00:04:51.568Z,2.50
2018-03-17T00:09:32.863Z,2.50
2018-03-17T00:14:06.850Z,2.50
2018-03-17T00:18:40.521Z,2.50
2018-03-17T00:23:15.427Z,2.60
2018-03-17T00:27:49.819Z,2.60
2018-03-17T00:32:26.161Z,2.50
2018-03-17T00:37:00.406Z,2.40
2018-03-17T00:41:34.823Z,2.30
2018-03-17T00:46:12.927Z,2.30
2018-03-17T00:50:46.247Z,2.30
2018-03-17T00:55:20.434Z,2.10
2018-03-17T00:59:54.500Z,2.20
2018-03-17T01:04:28.064Z,2.20
2018-03-17T01:09:02.859Z,2.00
2018-03-17T01:13:36.343Z,1.90
2018-03-17T01:18:11.430Z,1.80
2018-03-17T01:22:45.683Z,1.80
2018-03-17T01:27:19.138Z,1.70
2018-03-17T01:31:53.267Z,2.10
2018-03-17T01:36:27.397Z,2.30
2018-03-17T01:41:01.545Z,2.40
2018-03-17T01:45:34.821Z,2.40
2018-03-17T01:50:09.737Z,2.70
2018-03-17T01:54:44.541Z,2.70
2018-03-17T01:59:18.288Z,2.70
2018-03-17T02:03:52.344Z,2.90
2018-03-17T02:08:25.612Z,3.00
2018-03-17T02:12:58.989Z,3.00
2018-03-17T02:17:33.332Z,3.20
2018-03-17T02:22:07.139Z,3.20
2018-03-17T02:26:41.100Z,3.40
2018-03-17T02:31:14.593Z,3.50
2018-03-17T02:35:47.922Z,3.60
2018-03-17T02:40:21.519Z,3.60
2018-03-17T02:44:54.915Z,3.70
2018-03-17T02:49:29.999Z,3.60
2018-03-17T02:54:04.295Z,3.50
2018-03-17T02:58:39.258Z,3.40
2018-03-17T03:03:12.767Z,3.30
2018-03-17T03:07:46.293Z,3.50
2018-03-17T03:12:19.686Z,3.50
2018-03-17T03:16:53.728Z,4.10
2018-03-17T03:21:27.318Z,4.00
2018-03-17T03:26:01.363Z,4.10
2018-03-17T03:30:35.041Z,4.20
2018-03-17T03:35:09.439Z,4.60
2018-03-17T03:39:42.931Z,4.50
2018-03-17T03:44:16.442Z,4.80
2018-03-17T03:48:50.027Z,5.10
2018-03-17T03:53:23.455Z,5.20
2018-03-17T03:57:58.211Z,5.40
2018-03-17T04:02:33.384Z,5.30
2018-03-17T04:07:09.366Z,5.20
2018-03-17T04:11:43.156Z,5.10
2018-03-17T04:16:17.217Z,4.80
2018-03-17T04:20:51.064Z,4.60
2018-03-17T04:30:21.490Z,4.50
2018-03-17T04:34:59.498Z,4.50
2018-03-17T04:39:36.679Z,4.40
2018-03-17T04:44:11.359Z,4.50
2018-03-17T04:48:51.231Z,4.50
2018-03-17T04:53:30.679Z,4.40
2018-03-17T04:58:07.312Z,4.40
2018-03-17T05:02:45.035Z,4.20
2018-03-17T05:07:20.744Z,4.30
2018-03-17T05:12:00.942Z,4.10
2018-03-17T05:21:41.873Z,3.90
2018-03-17T05:26:16.044Z,3.80
2018-03-17T05:30:54.246Z,3.80
2018-03-17T05:35:29.117Z,3.70
2018-03-17T05:40:02.937Z,3.80
2018-03-17T05:44:58.652Z,3.70
2018-03-17T05:49:36.930Z,3.70
2018-03-17T05:54:13.870Z,3.60
2018-03-17T05:58:50.831Z,3.40
2018-03-17T06:03:33.300Z,3.20
2018-03-17T06:08:10.370Z,3.00
2018-03-17T06:12:46.193Z,2.70
2018-03-17T06:17:21.130Z,2.70
2018-03-17T06:21:55.140Z,2.60
2018-03-17T06:26:29.335Z,2.60
2018-03-17T06:31:06.705Z,2.50
2018-03-17T06:35:40.697Z,2.40
2018-03-17T06:40:15.091Z,2.30
2018-03-17T06:44:48.470Z,2.20
2018-03-17T06:49:22.365Z,2.10
2018-03-17T06:53:56.949Z,2.10
2018-03-17T06:58:30.587Z,2.20
2018-03-17T07:03:04.038Z,2.10
2018-03-17T07:07:38.070Z,2.00
2018-03-17T07:12:11.675Z,1.90
2018-03-17T07:16:45.938Z,1.90
2018-03-17T07:21:21.176Z,1.80
2018-03-17T07:25:55.060Z,2.10
2018-03-17T07:30:29.211Z,2.10
2018-03-17T07:35:03.445Z,2.00
2018-03-17T07:39:37.161Z,2.00
2018-03-17T07:44:11.402Z,2.10
2018-03-17T07:48:44.903Z,2.10
2018-03-17T07:53:21.965Z,2.10
2018-03-17T07:57:56.134Z,2.00
2018-03-17T08:02:30.565Z,2.00
2018-03-17T08:07:04.904Z,2.00
2018-03-17T08:11:38.427Z,1.90
2018-03-17T08:16:11.997Z,2.10
2018-03-17T08:20:45.254Z,2.10
2018-03-17T08:25:18.859Z,2.20
2018-03-17T08:29:54.207Z,2.40
2018-03-17T08:34:28.256Z,2.40
2018-03-17T08:39:02.642Z,2.40
2018-03-17T08:43:36.089Z,2.20
2018-03-17T08:48:10.500Z,2.30
2018-03-17T08:52:44.354Z,2.30
2018-03-17T08:57:18.017Z,2.20
2018-03-17T09:01:51.955Z,2.30
2018-03-17T09:06:25.503Z,2.30
2018-03-17T09:10:59.628Z,2.50
2018-03-17T09:15:33.548Z,2.50
2018-03-17T09:20:07.076Z,2.30
2018-03-17T09:24:40.734Z,2.30
2018-03-17T09:29:32.825Z,2.20
2018-03-17T09:39:14.746Z,2.00
2018-03-17T09:43:48.040Z,1.90
2018-03-17T09:48:21.565Z,1.90
2018-03-17T09:52:55.079Z,1.90
2018-03-17T09:57:28.356Z,1.90
2018-03-17T10:02:02.568Z,2.00
2018-03-17T10:06:37.354Z,2.00
2018-03-17T10:11:11.665Z,2.00
2018-03-17T10:15:46.131Z,2.00
2018-03-17T10:20:20.241Z,1.90
2018-03-17T10:24:55.010Z,2.10
2018-03-17T10:29:28.713Z,2.00
2018-03-17T10:34:02.678Z,2.00
2018-03-17T10:38:36.546Z,2.00
2018-03-17T10:43:09.959Z,2.10
2018-03-17T10:47:44.364Z,2.10
2018-03-17T10:52:17.916Z,2.00
2018-03-17T10:56:51.341Z,2.00
2018-03-17T11:01:25.871Z,1.90
2018-03-17T11:05:59.311Z,2.10
2018-03-17T11:10:33.243Z,2.10
2018-03-17T11:15:07.559Z,2.00
2018-03-17T11:19:41.488Z,2.10
2018-03-17T11:24:15.896Z,2.30
2018-03-17T11:28:49.218Z,2.20
2018-03-17T11:33:22.639Z,2.40
2018-03-17T11:37:56.121Z,2.20
2018-03-17T11:42:29.513Z,2.20
2018-03-17T11:47:03.724Z,2.10
2018-03-17T11:51:37.094Z,2.10
2018-03-17T11:56:10.682Z,2.20
2018-03-17T12:00:45.048Z,2.00
2018-03-17T12:05:18.327Z,1.90
2018-03-17T12:09:52.696Z,1.90
2018-03-17T12:14:26.003Z,1.80
2018-03-17T12:18:59.383Z,1.80
2018-03-17T12:23:33.511Z,1.80
2018-03-17T12:28:07.557Z,1.70
2018-03-17T12:32:40.793Z,1.70
2018-03-17T12:37:14.157Z,1.60
2018-03-17T12:41:48.308Z,1.90
2018-03-17T12:46:21.617Z,1.80
2018-03-17T12:50:54.881Z,1.80
2018-03-17T12:55:28.621Z,1.90
2018-03-17T13:00:02.985Z,1.50
2018-03-17T13:04:36.220Z,1.50
2018-03-17T13:09:10.328Z,1.80
2018-03-17T13:13:43.631Z,1.80
2018-03-17T13:18:18.327Z,1.60
2018-03-17T13:23:03.371Z,1.70
2018-03-17T13:33:03.072Z,1.70
2018-03-17T13:37:38.445Z,1.60
2018-03-17T13:42:12.902Z,1.50
2018-03-17T13:46:46.292Z,1.50
2018-03-17T13:51:20.442Z,1.70
2018-03-17T13:55:53.755Z,1.60
2018-03-17T14:00:27.040Z,1.40
2018-03-17T14:05:01.033Z,1.80
2018-03-17T14:09:35.094Z,1.70
2018-03-17T14:14:10.038Z,1.50
2018-03-17T14:18:44.032Z,1.30
2018-03-17T14:23:18.065Z,1.20
2018-03-17T14:27:51.604Z,1.20
2018-03-17T14:32:25.937Z,1.30
2018-03-17T14:37:00.099Z,1.30
2018-03-17T14:41:33.390Z,1.20
2018-03-17T14:46:06.648Z,1.20
2018-03-17T14:50:40.013Z,1.30
2018-03-17T14:55:13.348Z,1.10
2018-03-17T14:59:46.816Z,1.00
2018-03-17T15:04:20.902Z,1.10
2018-03-17T15:08:54.129Z,1.00
2018-03-17T15:13:28.282Z,1.10
2018-03-17T15:18:01.883Z,1.10
2018-03-17T15:22:35.482Z,1.00
2018-03-17T15:27:08.766Z,0.90
2018-03-17T15:31:42.749Z,1.00
2018-03-17T15:36:16.914Z,0.70
2018-03-17T15:40:50.284Z,0.60
2018-03-17T15:45:24.276Z,0.70
2018-03-17T15:49:57.984Z,0.60
2018-03-17T15:54:32.135Z,0.40
2018-03-17T15:59:07.210Z,0.40
2018-03-17T16:03:41.233Z,0.50
2018-03-17T16:08:15.283Z,0.40
2018-03-17T16:12:49.220Z,0.30
2018-03-17T16:17:22.451Z,0.20
2018-03-17T16:21:55.844Z,0.20
2018-03-17T16:26:29.129Z,0.40
2018-03-17T16:31:02.446Z,0.30
2018-03-17T16:35:35.931Z,0.20
2018-03-17T16:40:10.083Z,0.20
2018-03-17T16:44:43.362Z,0.20
2018-03-17T16:49:18.012Z,0.00
2018-03-17T16:53:51.422Z,0.00
2018-03-17T16:58:25.469Z,0.10
2018-03-17T17:02:58.820Z,0.00
2018-03-17T17:07:32.048Z,0.00
2018-03-17T17:12:05.422Z,-0.20
2018-03-17T17:16:38.888Z,-0.20
2018-03-17T17:21:12.943Z,-0.20
2018-03-17T17:25:46.429Z,-0.30
2018-03-17T17:30:20.576Z,-0.30
2018-03-17T17:34:53.895Z,-0.30
2018-03-17T17:39:27.183Z,-0.30
2018-03-17T17:44:01.215Z,-0.10
2018-03-17T17:48:34.613Z,-0.20
2018-03-17T17:53:08.652Z,-0.40
2018-03-17T17:57:42.075Z,-0.40
2018-03-17T18:02:15.337Z,-0.40
2018-03-17T18:06:49.308Z,-0.40
2018-03-17T18:11:22.625Z,-0.50
2018-03-17T18:15:55.895Z,-0.40
2018-03-17T18:20:30.031Z,-0.30
2018-03-17T18:25:04.773Z,-0.50
2018-03-17T18:29:38.933Z,-0.60
2018-03-17T18:34:12.527Z,-0.70
2018-03-17T18:38:45.847Z,-0.70
2018-03-17T18:43:19.282Z,-0.90
2018-03-17T18:47:52.891Z,-0.80
2018-03-17T18:52:26.148Z,-0.80
2018-03-17T18:57:01.241Z,-0.80
2018-03-17T19:01:34.524Z,-0.80
2018-03-17T19:06:08.757Z,-0.70
2018-03-17T19:10:42.091Z,-0.80
2018-03-17T19:15:15.679Z,-0.70
2018-03-17T19:19:49.832Z,-0.80
2018-03-17T19:24:23.980Z,-0.90
2018-03-17T19:28:57.254Z,-1.00
2018-03-17T19:33:30.583Z,-0.90
2018-03-17T19:38:04.252Z,-1.10
2018-03-17T19:42:37.615Z,-1.10
2018-03-17T19:47:11.094Z,-1.20
2018-03-17T19:51:45.131Z,-1.20
2018-03-17T19:56:19.092Z,-1.30
2018-03-17T20:00:52.488Z,-1.30
2018-03-17T20:05:25.800Z,-1.30
2018-03-17T20:09:59.073Z,-1.30
2018-03-17T20:14:33.111Z,-1.40
2018-03-17T20:19:06.419Z,-1.50
2018-03-17T20:23:39.747Z,-1.40
2018-03-17T20:28:13.366Z,-1.40
2018-03-17T20:32:46.830Z,-1.30
2018-03-17T20:37:20.280Z,-1.40
2018-03-17T20:41:53.669Z,-1.30
2018-03-17T20:46:27.761Z,-1.40
2018-03-17T20:51:01.432Z,-1.40
2018-03-17T20:55:34.972Z,-1.40
2018-03-17T21:00:08.251Z,-1.30
2018-03-17T21:04:41.509Z,-1.40
2018-03-17T21:09:14.796Z,-1.40
2018-03-17T21:13:48.070Z,-1.30
2018-03-17T21:18:22.097Z,-1.40
2018-03-17T21:22:56.137Z,-1.30
2018-03-17T21:27:29.437Z,-1.40
2018-03-17T21:32:02.834Z,-1.40
2018-03-17T21:36:36.833Z,-1.40
2018-03-17T21:41:10.097Z,-1.50
2018-03-17T21:45:43.375Z,-1.30
2018-03-17T21:50:17.414Z,-1.50
2018-03-17T21:54:50.672Z,-1.50
2018-03-17T21:59:23.946Z,-1.50
2018-03-17T22:03:57.231Z,-1.40
2018-03-17T22:08:30.560Z,-1.50
2018-03-17T22:13:03.848Z,-1.60
2018-03-17T22:17:37.886Z,-1.50
2018-03-17T22:22:11.149Z,-1.60
2018-03-17T22:26:44.983Z,-1.50
2018-03-17T22:31:18.541Z,-1.50
2018-03-17T22:35:51.995Z,-1.50
2018-03-17T22:40:25.478Z,-1.50
2018-03-17T22:44:59.413Z,-1.50
2018-03-17T22:49:32.700Z,-1.50
2018-03-17T22:54:05.966Z,-1.40
2018-03-17T22:58:40.049Z,-1.40
2018-03-17T23:03:13.662Z,-1.50
2018-03-17T23:07:46.958Z,-1.50
2018-03-17T23:12:20.230Z,-1.40
2018-03-17T23:16:54.286Z,-1.40
2018-03-17T23:21:27.568Z,-1.40
2018-03-17T23:26:01.911Z,-1.60
2018-03-17T23:30:36.018Z,-1.60
2018-03-17T23:35:09.760Z,-1.60
2018-03-17T23:39:43.989Z,-1.60
2018-03-17T23:44:19.013Z,-1.50
2018-03-17T23:48:52.570Z,-1.60
2018-03-17T23:53:25.855Z,-1.50
2018-03-17T23:57:59.911Z,-1.50
